Time;durP1;ratioP1;P1;durP2;ratioP2;P2;SDS_P1;SDS_P2;PMS_P1;PMS_P2;Temp;Humidity;BMP_temperature;BMP_pressure;BME280_temperature;BME280_humidity;BME280_pressure;Samples;Min_cycle;Max_cycle;Signal;HPM_P1;HPM_P2
2023/04/19 00:02:25;;;;;;;0.90;0.60;;;;;;;9.26;100.00;99489.38;105785;1254;60544;-51
2023/04/19 00:04:54;;;;;;;2.20;0.60;;;;;;;9.25;100.00;99492.48;105551;1258;74184;-50
2023/04/19 00:07:22;;;;;;;4.80;0.70;;;;;;;9.22;100.00;99493.70;105394;1255;67315;-50
2023/04/19 00:09:51;;;;;;;1.60;0.70;;;;;;;9.18;100.00;99490.68;105780;1259;72888;-50
2023/04/19 00:12:19;;;;;;;1.20;0.70;;;;;;;9.16;100.00;99488.96;106100;1260;60413;-48
2023/04/19 00:14:46;;;;;;;4.40;0.80;;;;;;;9.15;100.00;99488.13;105342;1260;60391;-50
2023/04/19 00:17:14;;;;;;;1.40;0.70;;;;;;;9.12;100.00;99489.11;105784;1261;73278;-49
2023/04/19 00:19:43;;;;;;;3.30;0.80;;;;;;;9.10;100.00;99489.21;105296;1260;66968;-51
2023/04/19 00:22:11;;;;;;;1.90;0.60;;;;;;;9.08;100.00;99485.38;105316;1260;73776;-51
2023/04/19 00:24:39;;;;;;;3.00;0.70;;;;;;;9.08;100.00;99486.63;105757;1258;60375;-48
2023/04/19 00:27:07;;;;;;;3.10;0.60;;;;;;;9.08;100.00;99482.16;105663;1258;61858;-50
2023/04/19 00:29:35;;;;;;;1.90;0.70;;;;;;;9.08;100.00;99482.16;105320;1260;72883;-49
2023/04/19 00:32:04;;;;;;;3.00;0.60;;;;;;;9.07;100.00;99480.23;105174;1254;67253;-50
2023/04/19 00:34:32;;;;;;;2.80;0.50;;;;;;;9.07;100.00;99475.24;105544;1260;72997;-51
2023/04/19 00:37:00;;;;;;;1.80;0.70;;;;;;;9.06;100.00;99473.49;105744;1258;61204;-49
2023/04/19 00:39:28;;;;;;;1.30;0.60;;;;;;;9.06;100.00;99475.64;105304;1258;60425;-50
2023/04/19 00:41:57;;;;;;;2.10;0.50;;;;;;;9.06;100.00;99470.42;105399;1259;73832;-50
2023/04/19 00:44:25;;;;;;;2.80;0.80;;;;;;;9.07;100.00;99469.86;105510;1260;67903;-49
2023/04/19 00:46:54;;;;;;;1.30;0.70;;;;;;;9.08;100.00;99468.22;105669;1254;72128;-50
2023/04/19 00:49:23;;;;;;;2.20;0.60;;;;;;;9.08;100.00;99465.16;105808;1254;60440;-50
2023/04/19 00:51:51;;;;;;;2.50;0.60;;;;;;;9.08;100.00;99466.23;106107;1258;60491;-51
2023/04/19 00:54:19;;;;;;;1.20;0.60;;;;;;;9.08;100.00;99468.91;105759;1253;74018;-50
2023/04/19 00:56:49;;;;;;;1.20;0.50;;;;;;;9.08;100.00;99466.22;105512;1269;67187;-51
2023/04/19 00:59:17;;;;;;;1.50;0.50;;;;;;;9.09;100.00;99463.51;105354;1260;73849;-51
2023/04/19 01:01:45;;;;;;;2.60;0.50;;;;;;;9.09;100.00;99463.87;105500;1269;60612;-52
2023/04/19 01:04:13;;;;;;;1.50;0.60;;;;;;;9.09;100.00;99459.93;105649;1258;60420;-52
2023/04/19 01:06:42;;;;;;;1.90;0.70;;;;;;;9.07;100.00;99458.04;105334;1256;73069;-51
2023/04/19 01:09:11;;;;;;;1.20;0.60;;;;;;;9.06;100.00;99455.23;105398;1260;66758;-51
2023/04/19 01:11:41;;;;;;;3.00;0.70;;;;;;;9.04;100.00;99451.20;105604;1256;71473;-51
2023/04/19 01:14:10;;;;;;;1.70;0.60;;;;;;;9.01;100.00;99454.72;105495;1264;60711;-51
2023/04/19 01:16:38;;;;;;;1.10;0.50;;;;;;;8.98;100.00;99452.73;105409;1255;61071;-51
2023/04/19 01:19:06;;;;;;;2.30;0.80;;;;;;;8.96;100.00;99453.52;105661;1254;74032;-52
2023/04/19 01:21:38;;;;;;;1.70;0.60;;;;;;;8.94;100.00;99453.10;105780;1260;66070;-52
2023/04/19 01:24:06;;;;;;;2.70;0.60;;;;;;;8.90;100.00;99451.48;105512;1254;70881;-52
2023/04/19 01:26:34;;;;;;;10.20;2.90;;;;;;;8.87;100.00;99445.20;105392;1269;60744;-51
2023/04/19 01:29:02;;;;;;;36.30;20.20;;;;;;;8.82;100.00;99440.05;106302;1254;60377;-52
2023/04/19 01:31:30;;;;;;;28.30;16.50;;;;;;;8.79;100.00;99439.50;105395;1254;73062;-51
2023/04/19 01:33:59;;;;;;;28.00;18.30;;;;;;;8.74;100.00;99437.58;105879;1258;67106;-50
2023/04/19 01:36:27;;;;;;;20.10;14.70;;;;;;;8.70;100.00;99435.60;105533;1258;72838;-50
2023/04/19 01:38:55;;;;;;;10.10;8.90;;;;;;;8.66;100.00;99434.71;105355;1257;60406;-50
2023/04/19 01:41:25;;;;;;;11.70;5.90;;;;;;;8.61;100.00;99428.48;105955;1254;60555;-51
2023/04/19 01:43:54;;;;;;;5.40;2.40;;;;;;;8.56;100.00;99425.71;105598;1254;72602;-50
2023/04/19 01:46:22;;;;;;;3.30;1.60;;;;;;;8.50;100.00;99426.67;105593;1260;67564;-47
2023/04/19 01:48:51;;;;;;;4.90;1.20;;;;;;;8.42;100.00;99424.74;105267;1254;71596;-52
2023/04/19 01:51:21;;;;;;;3.10;1.10;;;;;;;8.33;100.00;99423.33;106339;1259;60245;-50
2023/04/19 01:53:52;;;;;;;5.40;1.00;;;;;;;8.27;100.00;99428.40;105409;1257;60972;-50
2023/04/19 01:56:22;;;;;;;3.10;0.90;;;;;;;8.23;100.00;99431.25;105539;1260;74034;-52
2023/04/19 01:58:50;;;;;;;2.10;1.00;;;;;;;8.21;100.00;99430.65;106039;1257;66361;-47
2023/04/19 02:01:18;;;;;;;2.90;0.90;;;;;;;8.18;100.00;99428.41;106134;1255;71658;-51
2023/04/19 02:03:47;;;;;;;4.90;1.10;;;;;;;8.16;100.00;99422.66;105232;1260;60552;-50
2023/04/19 02:06:15;;;;;;;1.70;1.00;;;;;;;8.13;100.00;99417.77;105774;1257;60445;-49
2023/04/19 02:08:43;;;;;;;2.60;0.70;;;;;;;8.10;100.00;99417.36;105317;1260;73296;-49
2023/04/19 02:11:15;;;;;;;1.00;0.70;;;;;;;8.08;100.00;99415.09;105390;1260;66318;-50
2023/04/19 02:13:43;;;;;;;2.00;0.70;;;;;;;8.08;100.00;99414.05;105356;1259;72916;-49
2023/04/19 02:16:11;;;;;;;2.50;0.80;;;;;;;8.06;100.00;99413.95;108967;1254;59701;-50
2023/04/19 02:18:40;;;;;;;1.60;0.70;;;;;;;8.05;100.00;99412.95;109038;1253;58511;-50
2023/04/19 02:21:08;;;;;;;3.00;0.70;;;;;;;8.04;100.00;99412.45;109082;1254;74016;-50
2023/04/19 02:23:36;;;;;;;3.00;0.70;;;;;;;8.04;100.00;99409.59;109137;1254;67262;-50
2023/04/19 02:26:04;;;;;;;7.00;0.70;;;;;;;8.04;100.00;99407.44;107356;1256;72914;-50
2023/04/19 02:28:32;;;;;;;4.80;0.60;;;;;;;8.02;100.00;99405.89;106513;1254;60512;-50
2023/04/19 02:31:03;;;;;;;1.10;0.60;;;;;;;8.01;100.00;99403.80;108941;1257;59404;-51
2023/04/19 02:33:34;;;;;;;1.70;0.70;;;;;;;8.01;100.00;99405.94;108962;1258;73033;-51
2023/04/19 02:36:01;;;;;;;2.00;1.00;;;;;;;8.02;100.00;99410.73;109049;1254;66966;-51
2023/04/19 02:38:30;;;;;;;14.10;0.90;;;;;;;8.03;100.00;99417.14;108948;1254;71655;-51
2023/04/19 02:41:00;;;;;;;3.30;0.70;;;;;;;8.03;100.00;99419.96;105840;1255;60470;-51
2023/04/19 02:43:29;;;;;;;4.50;0.80;;;;;;;8.05;100.00;99419.20;109054;1254;59626;-50
2023/04/19 02:45:57;;;;;;;4.00;0.80;;;;;;;8.06;100.00;99422.55;109054;1255;72842;-50
2023/04/19 02:48:25;;;;;;;2.30;0.70;;;;;;;8.07;100.00;99419.48;108938;1255;65674;-50
2023/04/19 02:50:55;;;;;;;1.20;0.80;;;;;;;8.08;100.00;99422.45;109032;1254;72088;-50
2023/04/19 02:53:24;;;;;;;3.10;0.70;;;;;;;8.09;100.00;99421.33;108696;1254;60769;-50
2023/04/19 02:55:52;;;;;;;2.80;0.90;;;;;;;8.09;100.00;99423.98;108977;1256;59539;-50
2023/04/19 02:58:20;;;;;;;1.80;0.90;;;;;;;8.10;100.00;99422.16;108456;1254;73952;-50
2023/04/19 03:00:56;;;;;;;5.10;0.80;;;;;;;8.11;100.00;99424.12;105318;1259;68945;-50
2023/04/19 03:03:24;;;;;;;13.40;0.80;;;;;;;8.12;100.00;99423.73;108881;1254;72774;-52
2023/04/19 03:05:52;;;;;;;2.90;0.70;;;;;;;8.12;100.00;99421.19;108994;1257;59026;-52
2023/04/19 03:08:21;;;;;;;6.90;0.60;;;;;;;8.13;100.00;99417.58;108868;1255;60348;-51
2023/04/19 03:10:49;;;;;;;2.60;0.80;;;;;;;8.14;100.00;99420.77;108997;1254;72556;-52
2023/04/19 03:13:17;;;;;;;5.30;1.20;;;;;;;8.14;100.00;99416.98;106393;1254;65984;-49
2023/04/19 03:15:46;;;;;;;4.40;1.30;;;;;;;8.14;100.00;99416.48;105646;1257;73824;-49
2023/04/19 03:18:16;;;;;;;4.50;1.80;;;;;;;8.12;100.00;99411.92;105270;1254;60960;-49
2023/04/19 03:20:44;;;;;;;4.00;1.40;;;;;;;8.11;100.00;99410.70;105485;1255;61083;-49
2023/04/19 03:23:12;;;;;;;5.20;1.20;;;;;;;8.11;100.00;99407.29;105625;1254;74062;-50
2023/04/19 03:25:40;;;;;;;1.40;0.90;;;;;;;8.11;100.00;99405.67;106645;1255;66965;-49
2023/04/19 03:28:18;;;;;;;1.90;1.10;;;;;;;8.14;100.00;99401.84;105366;1254;72163;-51
2023/04/19 03:31:04;;;;;;;4.20;0.90;;;;;;;8.17;100.00;99399.18;105321;1255;60429;-49
2023/04/19 03:33:34;;;;;;;1.50;0.80;;;;;;;8.21;100.00;99400.08;105520;1254;60440;-50
2023/04/19 03:36:02;;;;;;;1.80;0.90;;;;;;;8.24;100.00;99396.02;105940;1257;73023;-48
2023/04/19 03:38:31;;;;;;;3.00;0.90;;;;;;;8.27;100.00;99395.48;105383;1256;67119;-49
2023/04/19 03:40:59;;;;;;;6.40;0.90;;;;;;;8.32;100.00;99399.44;105529;1254;72016;-50
2023/04/19 03:43:29;;;;;;;3.10;0.70;;;;;;;8.36;100.00;99401.91;107918;1254;225803;-49
2023/04/19 03:47:46;;;;;;;2.50;0.80;;;;;;;8.45;100.00;99395.10;102204;1292;600331;-49
2023/04/19 03:50:15;;;;;;;3.80;0.80;;;;;;;8.50;100.00;99401.84;104478;1271;59168;-51
2023/04/19 03:52:45;;;;;;;2.20;0.80;;;;;;;8.54;100.00;99395.92;104616;1271;59268;-51
2023/04/19 03:55:13;;;;;;;1.40;0.80;;;;;;;8.57;100.00;99398.27;104712;1270;71265;-48
2023/04/19 03:57:41;;;;;;;2.00;0.80;;;;;;;8.61;100.00;99398.28;104949;1266;65805;-49
2023/04/19 04:00:32;;;;;;;1.30;0.80;;;;;;;8.64;100.00;99397.45;104335;1264;195212;-50
2023/04/19 04:03:00;;;;;;;3.00;0.80;;;;;;;8.66;100.00;99396.46;105125;1268;60032;-50
2023/04/19 04:05:29;;;;;;;4.30;0.60;;;;;;;8.68;100.00;99398.67;105329;1266;61177;-51
2023/04/19 04:07:57;;;;;;;3.00;0.80;;;;;;;8.70;100.00;99399.65;104739;1266;73858;-49
2023/04/19 04:10:25;;;;;;;4.60;0.80;;;;;;;8.73;100.00;99395.23;104739;1268;67898;-50
2023/04/19 04:12:53;;;;;;;1.80;0.90;;;;;;;8.82;100.00;99395.16;104644;1266;73273;-52
2023/04/19 04:15:27;;;;;;;1.50;0.70;;;;;;;9.00;100.00;99393.04;105348;1259;59912;-49
2023/04/19 04:17:56;;;;;;;3.50;0.70;;;;;;;9.24;100.00;99388.69;105580;1258;59596;-49
2023/04/19 04:20:26;;;;;;;3.80;0.90;;;;;;;9.42;100.00;99391.70;105388;1257;73437;-50
2023/04/19 04:22:58;;;;;;;6.20;1.20;;;;;;;9.65;100.00;99393.26;105352;1259;67484;-49
2023/04/19 04:25:27;;;;;;;3.50;0.70;;;;;;;9.93;100.00;99390.20;105176;1257;74471;-49
2023/04/19 04:27:57;;;;;;;2.30;0.70;;;;;;;10.23;100.00;99383.80;106523;1259;60565;-49
2023/04/19 04:30:25;;;;;;;1.00;0.70;;;;;;;10.55;100.00;99382.66;104817;1257;60378;-49
2023/04/19 04:32:56;;;;;;;1.20;0.80;;;;;;;10.88;100.00;99378.88;104745;1257;73035;-50
2023/04/19 04:35:28;;;;;;;1.40;0.70;;;;;;;11.19;100.00;99375.33;105140;1258;67126;-50
2023/04/19 04:38:04;;;;;;;1.40;0.80;;;;;;;11.42;100.00;99370.38;105341;1258;71193;-49
2023/04/19 04:40:52;;;;;;;1.60;0.80;;;;;;;11.48;100.00;99370.77;105240;1259;59743;-50
2023/04/19 04:43:21;;;;;;;4.40;0.80;;;;;;;11.49;100.00;99373.79;104980;1258;60521;-51
2023/04/19 04:45:49;;;;;;;2.50;0.80;;;;;;;11.54;100.00;99370.77;105099;1259;71784;-49
2023/04/19 04:48:18;;;;;;;5.80;0.90;;;;;;;11.55;100.00;99375.60;106055;1259;68016;-50
2023/04/19 04:50:46;;;;;;;0.90;0.70;;;;;;;11.49;100.00;99379.00;105200;1259;72249;-50
2023/04/19 04:53:14;;;;;;;1.80;0.80;;;;;;;11.42;100.00;99381.74;105533;1261;59774;-52
2023/04/19 04:55:44;;;;;;;1.30;0.70;;;;;;;11.35;100.00;99383.00;105216;1258;60084;-51
2023/04/19 04:58:12;;;;;;;3.40;0.90;;;;;;;11.31;100.00;99389.70;105401;1259;73519;-50
2023/04/19 05:00:51;;;;;;;1.80;0.60;;;;;;;11.28;100.00;99390.80;106593;1259;66517;-50
2023/04/19 05:03:20;;;;;;;3.90;0.80;;;;;;;11.23;100.00;99396.63;105698;1261;72095;-51
2023/04/19 05:05:53;;;;;;;1.30;0.80;;;;;;;11.18;100.00;99397.80;106035;1259;59655;-51
2023/04/19 05:08:21;;;;;;;4.20;0.80;;;;;;;11.12;100.00;99398.35;105621;1259;60452;-50
2023/04/19 05:10:49;;;;;;;8.80;0.70;;;;;;;11.06;100.00;99394.73;106148;1256;73271;-50
2023/04/19 05:13:18;;;;;;;1.60;0.80;;;;;;;11.00;100.00;99396.15;104880;1259;68011;-50
2023/04/19 05:15:46;;;;;;;4.80;0.70;;;;;;;10.94;100.00;99397.74;104803;1262;73797;-51
2023/04/19 05:18:14;;;;;;;3.00;0.80;;;;;;;10.86;100.00;99396.74;104857;1260;61909;-49
2023/04/19 05:20:43;;;;;;;1.40;0.80;;;;;;;10.79;100.00;99398.92;108517;1261;60814;-51
2023/04/19 05:23:17;;;;;;;2.30;0.80;;;;;;;10.77;100.00;99400.83;108837;1257;72831;-52
2023/04/19 05:25:45;;;;;;;2.30;0.60;;;;;;;10.74;100.00;99394.36;106091;1262;66543;-52
2023/04/19 05:28:14;;;;;;;3.20;0.70;;;;;;;10.72;100.00;99393.19;108792;1257;71809;-49
2023/04/19 05:31:11;;;;;;;1.60;0.80;;;;;;;10.73;100.00;99393.35;108683;1256;60612;-49
2023/04/19 05:33:45;;;;;;;3.50;0.90;;;;;;;10.76;100.00;99392.63;108676;1259;61565;-49
2023/04/19 05:36:14;;;;;;;4.10;0.90;;;;;;;10.76;100.00;99389.41;108693;1258;73240;-50
2023/04/19 05:38:42;;;;;;;2.30;0.90;;;;;;;10.76;100.00;99391.05;108722;1257;67180;-49
2023/04/19 05:41:10;;;;;;;1.70;0.80;;;;;;;10.80;100.00;99390.23;108750;1257;71999;-49
2023/04/19 05:43:38;;;;;;;2.00;0.70;;;;;;;10.88;100.00;99390.53;108729;1258;59528;-49
2023/04/19 05:46:06;;;;;;;2.30;0.80;;;;;;;10.96;100.00;99388.61;108524;1257;58948;-50
2023/04/19 05:48:35;;;;;;;2.60;0.80;;;;;;;11.05;100.00;99390.11;108646;1259;71782;-49
2023/04/19 05:51:27;;;;;;;2.50;0.80;;;;;;;11.14;100.00;99391.60;108778;1256;65900;-50
2023/04/19 05:54:04;;;;;;;1.50;0.60;;;;;;;11.21;100.00;99388.66;108745;1259;72315;-50
2023/04/19 05:56:32;;;;;;;4.30;0.90;;;;;;;11.26;100.00;99388.19;108644;1257;59036;-49
2023/04/19 05:59:00;;;;;;;1.90;0.80;;;;;;;11.32;100.00;99390.02;105945;1256;59710;-51
2023/04/19 06:01:28;;;;;;;5.60;0.70;;;;;;;11.37;100.00;99390.09;108655;1259;72690;-49
2023/04/19 06:03:56;;;;;;;4.10;0.90;;;;;;;11.40;100.00;99389.02;108587;1257;67834;-50
2023/04/19 06:06:24;;;;;;;3.40;0.90;;;;;;;11.42;100.00;99387.30;108706;1257;71226;-49
2023/04/19 06:08:54;;;;;;;1.70;0.80;;;;;;;11.44;100.00;99389.86;105713;1262;60421;-51
2023/04/19 06:11:22;;;;;;;5.00;0.80;;;;;;;11.46;100.00;99388.13;107883;1259;60538;-47
2023/04/19 06:14:05;;;;;;;3.40;1.00;;;;;;;11.49;100.00;99385.10;104631;1258;73050;-50
2023/04/19 06:16:33;;;;;;;2.10;0.80;;;;;;;11.51;100.00;99382.81;104673;1263;68011;-50
2023/04/19 06:19:01;;;;;;;3.30;0.70;;;;;;;11.50;100.00;99381.59;106587;1259;71201;-50
2023/04/19 06:21:30;;;;;;;1.70;0.90;;;;;;;11.52;100.00;99383.29;104974;1261;60686;-49
2023/04/19 06:23:58;;;;;;;2.80;0.80;;;;;;;11.54;100.00;99381.20;105732;1256;59875;-50
2023/04/19 06:26:26;;;;;;;4.60;0.90;;;;;;;11.54;100.00;99384.43;105014;1261;73001;-50
2023/04/19 06:28:54;;;;;;;1.90;0.70;;;;;;;11.51;100.00;99386.41;104548;1261;68281;-51
2023/04/19 06:31:22;;;;;;;2.10;1.20;;;;;;;11.49;100.00;99384.36;108674;1257;72582;-51
2023/04/19 06:33:50;;;;;;;3.80;0.90;;;;;;;11.48;100.00;99381.77;105181;1261;61284;-50
2023/04/19 06:36:18;;;;;;;3.10;0.90;;;;;;;11.45;100.00;99379.20;104361;1259;60626;-51
2023/04/19 06:38:48;;;;;;;6.90;1.00;;;;;;;11.48;100.00;99380.13;105626;1258;72856;-52
2023/04/19 06:41:16;;;;;;;2.40;0.70;;;;;;;11.51;100.00;99375.77;105451;1259;67437;-52
2023/04/19 06:43:45;;;;;;;2.60;0.90;;;;;;;11.59;100.00;99375.00;105785;1258;72218;-50
2023/04/19 06:46:13;;;;;;;3.20;0.80;;;;;;;11.68;100.00;99369.76;105448;1262;59896;-51
2023/04/19 06:48:41;;;;;;;12.10;0.90;;;;;;;11.79;100.00;99373.13;105230;1266;59966;-49
2023/04/19 06:51:09;;;;;;;4.50;0.90;;;;;;;11.89;100.00;99369.45;105189;1258;72322;-49
2023/04/19 06:53:37;;;;;;;6.30;1.20;;;;;;;11.98;100.00;99366.39;105120;1261;67404;-50
2023/04/19 06:56:05;;;;;;;4.10;0.70;;;;;;;12.06;100.00;99365.34;105029;1259;72879;-51
2023/04/19 06:58:33;;;;;;;6.60;0.70;;;;;;;12.13;100.00;99364.02;105410;1259;59569;-50
2023/04/19 07:01:03;;;;;;;4.50;0.70;;;;;;;12.15;100.00;99366.30;105160;1259;60465;-50
2023/04/19 07:03:31;;;;;;;4.10;0.80;;;;;;;12.19;100.00;99369.80;106798;1257;72001;-51
2023/04/19 07:06:00;;;;;;;4.10;0.80;;;;;;;12.22;100.00;99367.47;105870;1259;66318;-52
2023/04/19 07:08:28;;;;;;;7.60;1.00;;;;;;;12.24;100.00;99362.46;105238;1259;71572;-51
2023/04/19 07:11:15;;;;;;;4.50;0.90;;;;;;;12.31;100.00;99367.60;105180;1262;62113;-51
2023/04/19 07:13:43;;;;;;;5.10;0.80;;;;;;;12.41;100.00;99364.47;105406;1259;59639;-50
2023/04/19 07:16:12;;;;;;;2.70;0.80;;;;;;;12.53;100.00;99365.55;105191;1262;73456;-51
2023/04/19 07:18:40;;;;;;;9.80;1.20;;;;;;;12.61;100.00;99367.54;105254;1261;68023;-51
2023/04/19 07:21:09;;;;;;;3.50;0.60;;;;;;;12.68;100.00;99365.09;105651;1259;72326;-51
2023/04/19 07:23:37;;;;;;;5.90;0.70;;;;;;;12.75;100.00;99369.88;105499;1262;59573;-50
2023/04/19 07:26:06;;;;;;;5.90;1.10;;;;;;;12.82;100.00;99366.37;105334;1258;59653;-52
2023/04/19 07:28:34;;;;;;;3.00;1.10;;;;;;;12.90;100.00;99366.95;105231;1260;73742;-50
2023/04/19 07:31:02;;;;;;;5.60;0.90;;;;;;;12.99;100.00;99368.75;105426;1260;65036;-52
2023/04/19 07:33:31;;;;;;;4.00;0.80;;;;;;;13.04;100.00;99365.16;105195;1260;73884;-51
2023/04/19 07:35:59;;;;;;;3.40;0.80;;;;;;;13.10;100.00;99368.16;105592;1259;60635;-56
2023/04/19 07:38:28;;;;;;;9.30;0.80;;;;;;;13.20;100.00;99364.64;105347;1256;59879;-52
2023/04/19 07:40:56;;;;;;;4.20;0.70;;;;;;;13.28;100.00;99365.21;105794;1258;72663;-50
2023/04/19 07:43:24;;;;;;;5.40;0.80;;;;;;;13.36;100.00;99362.52;105428;1262;68139;-50
2023/04/19 07:45:53;;;;;;;6.50;0.80;;;;;;;13.44;100.00;99362.77;105705;1261;72517;-50
2023/04/19 07:48:21;;;;;;;7.50;0.90;;;;;;;13.50;100.00;99363.96;105275;1262;59858;-52
2023/04/19 07:50:49;;;;;;;7.40;0.90;;;;;;;13.58;100.00;99360.70;105376;1259;62342;-51
2023/04/19 07:53:17;;;;;;;4.30;0.90;;;;;;;13.67;100.00;99354.00;105137;1262;72140;-52
2023/04/19 07:55:45;;;;;;;11.00;0.80;;;;;;;13.75;100.00;99355.42;105676;1261;65443;-51
2023/04/19 07:58:13;;;;;;;6.90;1.20;;;;;;;13.78;100.00;99355.77;105652;1262;74162;-51
2023/04/19 08:00:41;;;;;;;6.00;0.80;;;;;;;13.80;100.00;99350.38;104973;1262;60494;-52
2023/04/19 08:03:09;;;;;;;5.40;1.20;;;;;;;13.83;100.00;99347.98;105029;1257;61559;-51
2023/04/19 08:05:38;;;;;;;4.50;0.60;;;;;;;13.86;100.00;99349.30;105479;1260;73247;-51
2023/04/19 08:08:06;;;;;;;4.10;1.20;;;;;;;13.88;100.00;99351.11;105308;1262;66132;-52
2023/04/19 08:10:35;;;;;;;7.60;1.10;;;;;;;13.90;100.00;99346.45;105273;1259;72831;-52
2023/04/19 08:13:03;;;;;;;8.60;0.90;;;;;;;13.94;100.00;99348.73;105249;1263;60543;-52
2023/04/19 08:15:34;;;;;;;6.90;1.40;;;;;;;14.00;100.00;99347.56;105992;1259;60689;-51
2023/04/19 08:18:05;;;;;;;4.50;0.70;;;;;;;14.05;100.00;99343.41;105440;1257;74400;-52
2023/04/19 08:20:33;;;;;;;5.50;0.80;;;;;;;14.06;100.00;99341.75;105366;1255;67433;-51
2023/04/19 08:23:01;;;;;;;3.60;1.00;;;;;;;14.11;100.00;99341.40;105388;1258;72766;-51
2023/04/19 08:25:45;;;;;;;8.30;1.10;;;;;;;14.18;100.00;99336.23;106110;1258;60617;-51
2023/04/19 08:28:13;;;;;;;4.20;0.80;;;;;;;14.24;100.00;99330.03;105340;1256;60483;-52
2023/04/19 08:30:40;;;;;;;2.90;0.90;;;;;;;14.25;100.00;99325.08;105328;1256;73311;-52
2023/04/19 08:33:09;;;;;;;4.30;0.90;;;;;;;14.26;100.00;99323.40;105645;1257;68531;-54
2023/04/19 08:35:39;;;;;;;8.40;1.00;;;;;;;14.32;100.00;99326.73;105885;1257;71575;-52
2023/04/19 08:38:08;;;;;;;9.60;0.80;;;;;;;14.43;100.00;99314.63;105318;1259;60379;-52
2023/04/19 08:40:40;;;;;;;5.20;0.70;;;;;;;14.54;100.00;99312.21;109008;1254;58936;-51
2023/04/19 08:43:08;;;;;;;12.10;1.50;;;;;;;14.66;100.00;99316.77;109033;1256;76290;-50
2023/04/19 08:45:36;;;;;;;6.70;0.90;;;;;;;14.74;100.00;99319.05;109141;1255;67503;-50
2023/04/19 08:48:05;;;;;;;9.80;0.80;;;;;;;14.79;100.00;99314.55;108958;1255;72552;-51
2023/04/19 08:50:33;;;;;;;3.80;0.70;;;;;;;14.81;100.00;99314.44;108803;1254;59629;-51
2023/04/19 08:53:19;;;;;;;7.80;0.80;;;;;;;14.82;100.00;99318.29;108964;1254;58694;-50
2023/04/19 08:55:57;;;;;;;4.50;0.60;;;;;;;14.86;100.00;99310.45;109025;1254;73423;-51
2023/04/19 08:58:31;;;;;;;4.40;0.80;;;;;;;14.93;100.00;99312.30;109138;1254;67094;-50
2023/04/19 09:01:19;;;;;;;1.70;0.80;;;;;;;15.00;100.00;99314.25;109145;1256;72982;-50
2023/04/19 09:04:04;;;;;;;6.90;0.80;;;;;;;15.06;100.00;99318.92;108778;1255;60582;-50
2023/04/19 09:06:53;;;;;;;8.90;0.60;;;;;;;15.09;100.00;99312.34;108908;1256;60858;-52
2023/04/19 09:09:30;;;;;;;4.10;0.60;;;;;;;15.12;100.00;99314.07;108882;1256;72840;-53
2023/04/19 09:12:19;;;;;;;5.50;0.70;;;;;;;15.18;100.00;99311.85;108219;1258;66080;-52
2023/04/19 09:14:47;;;;;;;2.50;0.80;;;;;;;15.22;100.00;99309.19;108889;1256;72944;-53
2023/04/19 09:17:18;;;;;;;7.00;0.80;;;;;;;15.27;100.00;99311.52;108956;1254;58677;-54
2023/04/19 09:19:46;;;;;;;5.90;0.60;;;;;;;15.32;100.00;99308.98;108902;1254;61614;-52
2023/04/19 09:22:15;;;;;;;5.10;0.70;;;;;;;15.41;100.00;99309.95;108934;1258;72366;-52
2023/04/19 09:24:43;;;;;;;9.10;0.70;;;;;;;15.51;100.00;99309.76;105810;1257;66247;-50
2023/04/19 09:27:15;;;;;;;11.70;1.00;;;;;;;15.50;100.00;99309.40;107897;1258;72027;-51
2023/04/19 09:29:51;;;;;;;5.00;0.60;;;;;;;15.51;100.00;99306.62;105401;1259;60533;-51
2023/04/19 09:32:20;;;;;;;13.80;0.70;;;;;;;15.54;100.00;99302.69;105491;1257;60592;-51
2023/04/19 09:34:55;;;;;;;9.60;1.20;;;;;;;15.57;100.00;99306.95;108978;1257;72341;-51
2023/04/19 09:37:23;;;;;;;5.30;0.60;;;;;;;15.62;100.00;99299.73;108960;1254;66586;-52
2023/04/19 09:39:54;;;;;;;9.30;0.90;;;;;;;15.67;100.00;99298.98;106907;1254;71639;-50
2023/04/19 09:42:22;;;;;;;9.10;0.60;;;;;;;15.68;100.00;99304.12;105559;1259;61112;-51
2023/04/19 09:45:10;;;;;;;14.00;1.00;;;;;;;15.66;100.00;99298.83;105438;1256;60379;-51
2023/04/19 09:47:41;;;;;;;7.70;0.60;;;;;;;15.68;100.00;99293.07;105837;1257;74061;-51
2023/04/19 09:50:10;;;;;;;11.90;0.70;;;;;;;15.74;100.00;99296.58;105520;1257;67080;-48
2023/04/19 09:52:51;;;;;;;14.00;0.80;;;;;;;15.83;100.00;99293.75;108697;1256;71802;-52
2023/04/19 09:55:19;;;;;;;8.00;0.70;;;;;;;15.92;100.00;99289.78;106468;1256;60411;-51
2023/04/19 09:57:50;;;;;;;12.50;0.90;;;;;;;16.00;100.00;99283.37;105795;1256;60413;-50
2023/04/19 10:00:20;;;;;;;10.30;0.80;;;;;;;16.08;100.00;99286.00;106680;1256;74144;-51
2023/04/19 10:02:56;;;;;;;18.90;1.60;;;;;;;16.15;100.00;99286.56;105708;1258;66742;-50
2023/04/19 10:05:25;;;;;;;8.10;0.60;;;;;;;16.18;100.00;99283.52;106153;1259;70806;-50
2023/04/19 10:07:58;;;;;;;16.70;0.70;;;;;;;16.22;100.00;99280.92;105623;1258;61225;-49
2023/04/19 10:10:27;;;;;;;18.70;1.30;;;;;;;16.26;100.00;99281.69;105556;1258;60397;-54
2023/04/19 10:13:12;;;;;;;20.00;1.30;;;;;;;16.31;100.00;99283.06;105611;1259;72580;-50
2023/04/19 10:15:43;;;;;;;13.30;0.80;;;;;;;16.37;100.00;99288.91;105656;1259;66215;-51
2023/04/19 10:18:22;;;;;;;15.20;1.00;;;;;;;16.42;100.00;99285.23;105679;1259;71665;-52
2023/04/19 10:21:02;;;;;;;16.50;1.40;;;;;;;16.49;100.00;99287.79;105230;1260;60954;-50
2023/04/19 10:23:30;;;;;;;14.10;0.80;;;;;;;16.54;100.00;99291.02;105015;1259;60563;-52
2023/04/19 10:25:58;;;;;;;16.80;1.00;;;;;;;16.53;100.00;99288.50;105034;1255;73700;-52
2023/04/19 10:28:27;;;;;;;17.10;1.10;;;;;;;16.55;100.00;99289.48;105556;1257;67474;-52
2023/04/19 10:31:02;;;;;;;17.00;0.80;;;;;;;16.58;100.00;99285.45;107438;1257;72623;-50
2023/04/19 10:33:35;;;;;;;15.20;0.80;;;;;;;16.60;100.00;99288.73;105403;1257;60522;-51
2023/04/19 10:36:03;;;;;;;15.90;1.40;;;;;;;16.59;100.00;99289.47;105506;1254;61219;-51
2023/04/19 10:38:38;;;;;;;16.60;0.70;;;;;;;16.57;100.00;99287.12;105411;1260;73799;-51
2023/04/19 10:41:15;;;;;;;20.90;1.20;;;;;;;16.57;100.00;99285.83;105519;1259;68003;-48
2023/04/19 10:43:54;;;;;;;17.00;1.00;;;;;;;16.60;100.00;99281.30;105492;1259;72994;-51
2023/04/19 10:46:27;;;;;;;13.80;1.10;;;;;;;16.60;100.00;99282.71;105433;1258;60657;-51
2023/04/19 10:48:59;;;;;;;20.20;1.10;;;;;;;16.61;100.00;99292.66;105778;1257;60463;-50
2023/04/19 10:51:37;;;;;;;19.50;1.30;;;;;;;16.66;100.00;99283.39;105477;1259;74940;-51
2023/04/19 10:54:07;;;;;;;11.00;1.10;;;;;;;16.71;100.00;99290.63;105733;1258;67467;-51
2023/04/19 10:56:35;;;;;;;16.10;1.00;;;;;;;16.76;100.00;99289.86;106200;1259;70700;-51
2023/04/19 10:59:06;;;;;;;11.80;1.10;;;;;;;16.82;100.00;99298.41;105355;1259;60444;-52
2023/04/19 11:01:38;;;;;;;11.90;1.00;;;;;;;16.83;100.00;99304.30;105468;1260;59284;-50
2023/04/19 11:04:28;;;;;;;14.90;0.80;;;;;;;16.82;100.00;99303.80;106937;1258;72571;-51
2023/04/19 11:07:00;;;;;;;20.90;1.30;;;;;;;16.82;100.00;99302.23;105786;1263;66837;-50
2023/04/19 11:09:34;;;;;;;23.80;2.30;;;;;;;16.75;100.00;99304.80;105471;1257;71728;-50
2023/04/19 11:12:07;;;;;;;;;;;;;;;16.64;100.00;99305.48;105408;1258;60396;-50
2023/04/19 11:14:39;;;;;;;21.30;1.40;;;;;;;16.54;100.00;99298.79;105405;1258;60929;-51
2023/04/19 11:17:17;;;;;;;21.40;1.90;;;;;;;16.39;100.00;99302.03;105443;1255;73460;-52
2023/04/19 11:20:12;;;;;;;21.50;1.40;;;;;;;16.26;100.00;99303.36;108291;1258;68143;-51
2023/04/19 11:22:41;;;;;;;18.50;1.70;;;;;;;16.21;100.00;99305.98;105417;1260;71929;-51
2023/04/19 11:25:13;;;;;;;20.20;1.60;;;;;;;16.19;100.00;99303.01;105610;1258;60381;-51
2023/04/19 11:27:42;;;;;;;27.20;2.40;;;;;;;16.21;100.00;99310.45;105351;1259;60473;-51
2023/04/19 11:30:13;;;;;;;13.40;1.00;;;;;;;16.22;100.00;99315.09;105751;1257;72954;-52
2023/04/19 11:32:51;;;;;;;19.40;1.20;;;;;;;16.22;100.00;99313.52;106488;1254;66723;-51
2023/04/19 11:35:24;;;;;;;24.50;1.80;;;;;;;16.21;100.00;99323.33;106294;1258;72956;-51
2023/04/19 11:37:52;;;;;;;16.00;1.50;;;;;;;16.21;100.00;99320.22;105988;1254;60507;-50